createdAt,value
2022-12-05T00:01:18.981Z,87.06
2022-12-05T00:03:47.221Z,86.92
2022-12-05T00:06:15.338Z,86.88
2022-12-05T00:08:43.692Z,86.82
2022-12-05T00:11:13.206Z,86.54
2022-12-05T00:13:41.445Z,86.34
2022-12-05T00:16:10.356Z,86.68
2022-12-05T00:18:38.340Z,86.57
2022-12-05T00:21:06.708Z,86.46
2022-12-05T00:23:34.525Z,86.43
2022-12-05T00:26:03.697Z,86.34
2022-12-05T00:28:35.087Z,86.33
2022-12-05T00:31:03.977Z,86.60
2022-12-05T00:33:32.213Z,86.60
2022-12-05T00:36:03.871Z,86.75
2022-12-05T00:38:31.654Z,86.41
2022-12-05T00:41:03.410Z,86.25
2022-12-05T00:43:31.731Z,86.69
2022-12-05T00:46:03.728Z,86.58
2022-12-05T00:48:32.044Z,86.40
2022-12-05T00:51:04.310Z,86.49
2022-12-05T00:53:34.361Z,86.60
2022-12-05T00:56:13.026Z,86.62
2022-12-05T00:58:40.728Z,86.41
2022-12-05T01:01:10.729Z,86.47
2022-12-05T01:03:38.968Z,86.57
2022-12-05T01:06:07.073Z,86.53
2022-12-05T01:08:35.345Z,86.28
2022-12-05T01:11:04.376Z,86.19
2022-12-05T01:13:32.906Z,86.60
2022-12-05T01:16:01.210Z,86.84
2022-12-05T01:18:29.318Z,86.85
2022-12-05T01:20:57.112Z,86.98
2022-12-05T01:23:24.910Z,86.77
2022-12-05T01:25:53.255Z,86.75
2022-12-05T01:28:21.016Z,86.71
2022-12-05T01:30:49.875Z,87.11
2022-12-05T01:33:18.270Z,86.77
2022-12-05T01:35:46.211Z,86.84
2022-12-05T01:38:14.028Z,86.86
2022-12-05T01:40:41.796Z,86.63
2022-12-05T01:43:17.720Z,86.70
2022-12-05T01:45:46.729Z,86.62
2022-12-05T01:48:19.567Z,86.96
2022-12-05T01:50:48.726Z,87.33
2022-12-05T01:53:16.749Z,87.40
2022-12-05T01:55:45.331Z,87.22
2022-12-05T01:58:13.366Z,86.86
2022-12-05T02:00:41.065Z,86.58
2022-12-05T02:03:10.940Z,86.27
2022-12-05T02:05:38.685Z,86.13
2022-12-05T02:08:07.697Z,85.99
2022-12-05T02:10:40.671Z,86.05
2022-12-05T02:13:27.148Z,86.19
2022-12-05T02:16:13.409Z,86.42
2022-12-05T02:18:41.223Z,86.61
2022-12-05T02:21:44.732Z,86.55
2022-12-05T02:24:30.936Z,86.51
2022-12-05T02:27:19.689Z,86.67
2022-12-05T02:29:50.713Z,86.77
2022-12-05T02:32:30.747Z,86.66
2022-12-05T02:34:58.465Z,86.59
2022-12-05T02:37:41.472Z,87.06
2022-12-05T02:40:23.767Z,87.34
2022-12-05T02:42:56.514Z,87.33
2022-12-05T02:45:25.791Z,87.04
2022-12-05T02:47:54.397Z,86.40
2022-12-05T02:50:25.180Z,86.30
2022-12-05T02:52:54.493Z,86.30
2022-12-05T02:55:23.391Z,86.76
2022-12-05T02:57:52.917Z,86.92
2022-12-05T03:00:22.027Z,86.68
2022-12-05T03:02:54.448Z,86.39
2022-12-05T03:05:40.806Z,86.28
2022-12-05T03:08:11.890Z,86.35
2022-12-05T03:10:42.499Z,86.44
2022-12-05T03:13:13.943Z,86.33
2022-12-05T03:15:45.185Z,86.57
2022-12-05T03:18:20.300Z,86.83
2022-12-05T03:20:50.167Z,87.11
2022-12-05T03:23:24.204Z,87.18
2022-12-05T03:26:02.228Z,86.90
2022-12-05T03:28:36.885Z,86.97
2022-12-05T03:31:09.398Z,87.17
2022-12-05T03:33:42.518Z,87.24
2022-12-05T03:36:22.873Z,87.36
2022-12-05T03:38:52.025Z,87.30
2022-12-05T03:41:30.461Z,87.16
2022-12-05T03:44:01.488Z,87.27
2022-12-05T03:46:32.399Z,87.32
2022-12-05T03:49:15.479Z,87.12
2022-12-05T03:51:46.737Z,86.82
2022-12-05T03:54:21.216Z,86.90
2022-12-05T03:57:01.606Z,87.03
2022-12-05T03:59:35.909Z,87.04
2022-12-05T04:02:13.551Z,86.92
2022-12-05T04:05:07.832Z,87.12
2022-12-05T04:07:38.986Z,87.43
2022-12-05T04:10:10.181Z,87.17
2022-12-05T04:12:39.970Z,87.13
2022-12-05T04:15:13.280Z,87.01
2022-12-05T04:17:53.749Z,86.92
2022-12-05T04:20:42.947Z,86.74
2022-12-05T04:23:11.245Z,86.37
2022-12-05T04:26:05.205Z,86.15
2022-12-05T04:28:42.048Z,86.25
2022-12-05T04:31:12.056Z,86.46
2022-12-05T04:33:58.996Z,86.46
2022-12-05T04:36:36.000Z,86.64
2022-12-05T04:39:03.936Z,86.69
2022-12-05T04:41:34.412Z,86.77
2022-12-05T04:44:05.757Z,86.37
2022-12-05T04:46:34.057Z,86.34
2022-12-05T04:49:03.693Z,86.62
2022-12-05T04:51:34.456Z,86.63
2022-12-05T04:54:05.066Z,86.80
2022-12-05T04:56:34.353Z,86.95
2022-12-05T04:59:02.559Z,86.78
2022-12-05T05:01:30.251Z,87.07
2022-12-05T05:04:09.747Z,86.99
2022-12-05T05:06:38.400Z,87.01
2022-12-05T05:09:06.995Z,87.20
2022-12-05T05:11:35.646Z,87.18
2022-12-05T05:14:03.816Z,87.21
2022-12-05T05:16:36.660Z,87.21
2022-12-05T05:19:05.202Z,87.36
2022-12-05T05:21:42.425Z,87.31
2022-12-05T05:24:10.699Z,87.51
2022-12-05T05:26:40.068Z,87.65
2022-12-05T05:29:11.283Z,88.10
2022-12-05T05:31:40.137Z,88.36
2022-12-05T05:34:09.865Z,88.54
2022-12-05T05:36:38.656Z,88.17
2022-12-05T05:39:09.267Z,88.19
2022-12-05T05:41:37.073Z,87.90
2022-12-05T05:44:05.130Z,87.69
2022-12-05T05:46:34.573Z,87.51
2022-12-05T05:49:02.966Z,87.52
2022-12-05T05:51:30.735Z,87.38
2022-12-05T05:53:59.061Z,87.46
2022-12-05T05:56:27.867Z,87.33
2022-12-05T05:58:59.640Z,87.32
2022-12-05T06:01:28.072Z,87.34
2022-12-05T06:03:56.095Z,87.34
2022-12-05T06:06:24.462Z,87.15
2022-12-05T06:08:52.305Z,87.19
2022-12-05T06:11:25.764Z,87.23
2022-12-05T06:13:58.483Z,87.22
2022-12-05T06:16:26.179Z,87.28
2022-12-05T06:18:53.911Z,87.27
2022-12-05T06:21:22.313Z,87.26
2022-12-05T06:23:50.647Z,86.90
2022-12-05T06:26:19.651Z,87.01
2022-12-05T06:28:47.555Z,86.87
2022-12-05T06:31:20.119Z,87.12
2022-12-05T06:33:48.436Z,86.87
2022-12-05T06:36:17.659Z,86.84
2022-12-05T06:38:45.429Z,86.74
2022-12-05T06:41:17.348Z,86.54
2022-12-05T06:43:45.476Z,86.36
2022-12-05T06:46:14.226Z,86.25
2022-12-05T06:48:42.087Z,86.32
2022-12-05T06:51:11.278Z,86.38
2022-12-05T06:53:39.620Z,86.42
2022-12-05T06:56:12.761Z,86.38
2022-12-05T06:58:41.304Z,86.38
2022-12-05T07:01:33.857Z,86.08
2022-12-05T07:04:02.267Z,85.92
2022-12-05T07:06:30.263Z,85.71
2022-12-05T07:08:58.086Z,85.61
2022-12-05T07:11:25.958Z,85.88
2022-12-05T07:13:53.670Z,85.58
2022-12-05T07:16:21.969Z,85.52
2022-12-05T07:18:50.366Z,85.31
2022-12-05T07:21:18.743Z,85.65
2022-12-05T07:23:47.136Z,85.70
2022-12-05T07:26:15.991Z,85.59
2022-12-05T07:28:43.933Z,85.17
2022-12-05T07:31:13.027Z,84.89
2022-12-05T07:33:41.023Z,84.93
2022-12-05T07:36:10.277Z,85.09
2022-12-05T07:38:38.381Z,85.32
2022-12-05T07:41:13.568Z,85.01
2022-12-05T07:43:42.122Z,84.89
2022-12-05T07:46:11.836Z,84.81
2022-12-05T07:48:40.613Z,84.82
2022-12-05T07:51:09.767Z,84.96
2022-12-05T07:53:38.376Z,85.14
2022-12-05T07:56:07.259Z,84.89
2022-12-05T07:58:35.457Z,84.66
2022-12-05T08:01:07.986Z,84.61
2022-12-05T08:03:37.615Z,84.50
2022-12-05T08:06:06.582Z,84.51
2022-12-05T08:08:34.329Z,84.73
2022-12-05T08:11:06.270Z,84.81
2022-12-05T08:13:34.602Z,85.00
2022-12-05T08:16:03.687Z,85.16
2022-12-05T08:18:31.771Z,85.32
2022-12-05T08:21:10.690Z,85.47
2022-12-05T08:23:39.016Z,85.68
2022-12-05T08:26:17.122Z,85.98
2022-12-05T08:28:45.502Z,85.72
2022-12-05T08:31:14.830Z,85.67
2022-12-05T08:33:43.022Z,85.67
2022-12-05T08:36:13.392Z,85.75
2022-12-05T08:38:41.542Z,85.65
2022-12-05T08:41:10.571Z,85.90
2022-12-05T08:43:38.292Z,86.08
2022-12-05T08:46:06.107Z,85.88
2022-12-05T08:48:34.792Z,86.05
2022-12-05T08:51:11.420Z,85.83
2022-12-05T08:53:44.409Z,86.39
2022-12-05T08:56:13.405Z,87.08
2022-12-05T08:58:41.693Z,86.72
2022-12-05T09:01:19.565Z,86.69
2022-12-05T09:03:48.359Z,86.68
2022-12-05T09:06:16.301Z,87.18
2022-12-05T09:08:44.756Z,87.63
2022-12-05T09:11:14.208Z,87.83
2022-12-05T09:13:42.155Z,87.78
2022-12-05T09:16:11.658Z,87.62
2022-12-05T09:18:39.751Z,87.63
2022-12-05T09:21:37.136Z,87.77
2022-12-05T09:24:04.903Z,87.85
2022-12-05T09:26:32.661Z,87.79
2022-12-05T09:29:01.493Z,87.97
2022-12-05T09:31:30.669Z,87.88
2022-12-05T09:33:58.542Z,87.77
2022-12-05T09:36:27.824Z,87.62
2022-12-05T09:38:59.140Z,87.44
2022-12-05T09:42:04.444Z,87.60
2022-12-05T09:44:35.829Z,87.07
2022-12-05T09:47:11.776Z,87.02
2022-12-05T09:49:44.376Z,87.25
2022-12-05T09:52:22.794Z,87.02
2022-12-05T09:54:52.100Z,86.75
2022-12-05T09:57:30.412Z,86.94
2022-12-05T10:00:01.832Z,87.56
2022-12-05T10:02:35.778Z,87.66
2022-12-05T10:05:22.308Z,87.69
2022-12-05T10:07:50.320Z,87.61
2022-12-05T10:10:24.503Z,87.39
2022-12-05T10:13:07.879Z,87.37
2022-12-05T10:15:39.100Z,87.41
2022-12-05T10:18:26.585Z,87.43
2022-12-05T10:20:57.907Z,87.22
2022-12-05T10:23:55.429Z,87.34
2022-12-05T10:26:16.362Z,87.63
2022-12-05T10:28:59.082Z,88.03
2022-12-05T10:31:30.487Z,88.05
2022-12-05T10:34:04.481Z,87.66
2022-12-05T10:36:32.741Z,87.33
2022-12-05T10:39:00.626Z,86.83
2022-12-05T10:41:29.217Z,86.85
2022-12-05T10:43:58.494Z,87.16
2022-12-05T10:46:26.704Z,87.28
2022-12-05T10:48:54.442Z,87.30
2022-12-05T10:51:25.801Z,87.43
2022-12-05T10:53:54.259Z,87.02
2022-12-05T10:56:37.523Z,87.18
2022-12-05T10:59:06.567Z,86.77
2022-12-05T11:01:35.685Z,86.96
2022-12-05T11:04:18.543Z,87.09
2022-12-05T11:06:51.195Z,87.41
2022-12-05T11:09:24.207Z,87.42
2022-12-05T11:12:01.381Z,87.15
2022-12-05T11:14:40.500Z,87.50
2022-12-05T11:17:23.193Z,87.53
2022-12-05T11:19:56.379Z,87.55
2022-12-05T11:22:30.823Z,87.61
2022-12-05T11:25:01.401Z,87.37
2022-12-05T11:27:46.282Z,87.02
2022-12-05T11:30:18.104Z,86.92
2022-12-05T11:32:53.769Z,86.59
2022-12-05T11:35:30.853Z,86.72
2022-12-05T11:38:00.322Z,86.89
2022-12-05T11:40:38.798Z,87.09
2022-12-05T11:43:27.138Z,87.65
2022-12-05T11:46:10.265Z,87.59
2022-12-05T11:48:49.900Z,87.26
2022-12-05T11:51:17.664Z,87.83
2022-12-05T11:54:04.616Z,88.00
2022-12-05T11:56:41.775Z,87.84
2022-12-05T11:59:18.409Z,87.77
2022-12-05T12:01:46.235Z,88.04
2022-12-05T12:04:14.081Z,87.62
2022-12-05T12:06:41.868Z,87.50
2022-12-05T12:09:23.692Z,87.60
2022-12-05T12:12:04.026Z,87.64
2022-12-05T12:14:50.519Z,87.51
2022-12-05T12:17:26.719Z,87.28
2022-12-05T12:19:57.739Z,87.33
2022-12-05T12:22:44.525Z,87.61
2022-12-05T12:25:12.301Z,87.75
2022-12-05T12:28:04.541Z,87.66
2022-12-05T12:30:32.927Z,87.62
2022-12-05T12:33:29.003Z,87.62
2022-12-05T12:35:57.020Z,87.64
2022-12-05T12:38:40.734Z,87.92
2022-12-05T12:41:17.784Z,87.82
2022-12-05T12:43:53.621Z,87.24
2022-12-05T12:46:25.008Z,87.16
2022-12-05T12:48:52.971Z,87.40
2022-12-05T12:51:20.893Z,87.78
2022-12-05T12:53:54.550Z,87.71
2022-12-05T12:56:39.043Z,87.78
2022-12-05T12:59:25.442Z,88.18
2022-12-05T13:01:58.238Z,88.14
2022-12-05T13:04:45.095Z,87.84
2022-12-05T13:07:16.796Z,88.08
2022-12-05T13:09:54.363Z,87.85
2022-12-05T13:12:26.001Z,87.98
2022-12-05T13:14:57.317Z,88.24
2022-12-05T13:17:25.515Z,88.47
2022-12-05T13:19:54.937Z,88.57
2022-12-05T13:22:27.682Z,88.89
2022-12-05T13:24:56.023Z,89.08
2022-12-05T13:27:27.877Z,89.12
2022-12-05T13:29:57.413Z,88.94
2022-12-05T13:32:40.858Z,89.12
2022-12-05T13:35:10.963Z,89.12
2022-12-05T13:38:05.300Z,89.42
2022-12-05T13:41:02.413Z,88.94
2022-12-05T13:43:30.812Z,88.65
2022-12-05T13:46:01.414Z,89.08
2022-12-05T13:48:37.324Z,89.30
2022-12-05T13:51:08.218Z,89.17
2022-12-05T13:53:38.929Z,89.06
2022-12-05T13:56:23.961Z,89.14
2022-12-05T13:58:53.291Z,88.60
2022-12-05T14:01:27.910Z,88.80
2022-12-05T14:04:00.586Z,89.19
2022-12-05T14:06:40.444Z,89.15
2022-12-05T14:09:31.595Z,88.97
2022-12-05T14:12:11.408Z,89.34
2022-12-05T14:14:57.548Z,89.23
2022-12-05T14:17:42.174Z,89.15
2022-12-05T14:20:16.147Z,88.94
2022-12-05T14:22:53.175Z,88.72
2022-12-05T14:25:36.499Z,88.87
2022-12-05T14:28:23.069Z,88.75
2022-12-05T14:31:01.670Z,88.94
2022-12-05T14:33:29.644Z,89.14
2022-12-05T14:36:04.546Z,89.38
2022-12-05T14:38:39.240Z,89.71
2022-12-05T14:42:02.203Z,89.79
2022-12-05T14:44:34.225Z,89.70
2022-12-05T14:47:07.095Z,89.57
2022-12-05T14:49:37.717Z,89.57
2022-12-05T14:52:12.777Z,89.62
2022-12-05T14:54:40.757Z,89.55
2022-12-05T14:57:15.580Z,89.80
2022-12-05T14:59:46.787Z,89.85
2022-12-05T15:02:23.436Z,89.86
2022-12-05T15:04:55.796Z,90.03
2022-12-05T15:07:32.389Z,89.84
2022-12-05T15:10:02.075Z,89.39
2022-12-05T15:12:34.080Z,89.37
2022-12-05T15:15:13.918Z,89.83
2022-12-05T15:17:46.557Z,90.00
2022-12-05T15:20:15.782Z,89.82
2022-12-05T15:22:43.711Z,89.71
2022-12-05T15:25:20.719Z,90.05
2022-12-05T15:27:55.735Z,89.99
2022-12-05T15:30:23.579Z,89.80
2022-12-05T15:32:56.129Z,90.20
2022-12-05T15:35:28.716Z,90.33
2022-12-05T15:37:58.676Z,90.74
2022-12-05T15:40:26.746Z,90.89
2022-12-05T15:42:56.285Z,90.32
2022-12-05T15:45:25.672Z,89.67
2022-12-05T15:47:55.205Z,89.67
2022-12-05T15:50:22.984Z,89.96
2022-12-05T15:52:53.951Z,90.23
2022-12-05T15:55:51.127Z,90.26
2022-12-05T15:58:27.001Z,90.16
2022-12-05T16:00:58.227Z,90.33
2022-12-05T16:03:40.345Z,90.41
2022-12-05T16:06:12.524Z,90.42
2022-12-05T16:08:44.506Z,90.22
2022-12-05T16:11:13.660Z,90.14
2022-12-05T16:14:02.237Z,90.10
2022-12-05T16:16:32.078Z,90.14
2022-12-05T16:19:04.616Z,90.29
2022-12-05T16:21:37.906Z,90.03
2022-12-05T16:24:19.243Z,90.15
2022-12-05T16:27:07.112Z,90.30
2022-12-05T16:29:35.016Z,90.15
2022-12-05T16:32:07.249Z,90.31
2022-12-05T16:34:35.289Z,90.47
2022-12-05T16:37:03.236Z,90.48
2022-12-05T16:39:31.164Z,90.60
2022-12-05T16:41:59.024Z,90.64
2022-12-05T16:45:03.699Z,90.72
2022-12-05T16:47:43.766Z,90.66
2022-12-05T16:50:22.550Z,90.85
2022-12-05T16:52:50.671Z,91.09
2022-12-05T16:55:18.417Z,91.21
2022-12-05T16:57:46.156Z,90.89
2022-12-05T17:00:14.919Z,90.85
2022-12-05T17:02:42.655Z,91.11
2022-12-05T17:05:14.208Z,90.80
2022-12-05T17:07:41.941Z,90.77
2022-12-05T17:10:09.822Z,90.75
2022-12-05T17:12:37.639Z,90.63
2022-12-05T17:15:05.618Z,90.40
2022-12-05T17:17:33.320Z,90.28
2022-12-05T17:20:01.046Z,90.38
2022-12-05T17:22:28.843Z,90.01
2022-12-05T17:24:59.877Z,90.01
2022-12-05T17:27:27.907Z,89.85
2022-12-05T17:29:55.912Z,89.90
2022-12-05T17:32:23.826Z,89.64
2022-12-05T17:34:51.644Z,89.71
2022-12-05T17:37:19.460Z,89.65
2022-12-05T17:39:47.193Z,89.34
2022-12-05T17:42:14.919Z,89.63
2022-12-05T17:44:42.977Z,89.49
2022-12-05T17:47:10.840Z,89.78
2022-12-05T17:49:38.779Z,90.13
2022-12-05T17:52:21.578Z,90.34
2022-12-05T17:54:50.482Z,90.27
2022-12-05T17:57:18.281Z,90.36
2022-12-05T17:59:46.418Z,90.54
2022-12-05T18:02:15.645Z,90.42
2022-12-05T18:04:43.728Z,90.43
2022-12-05T18:07:11.647Z,90.21
2022-12-05T18:09:39.384Z,90.50
2022-12-05T18:12:07.136Z,90.58
2022-12-05T18:14:36.152Z,90.61
2022-12-05T18:17:04.019Z,90.65
2022-12-05T18:19:31.952Z,90.59
2022-12-05T18:21:59.708Z,90.61
2022-12-05T18:24:27.488Z,90.71
2022-12-05T18:26:56.314Z,90.73
2022-12-05T18:29:24.195Z,90.72
2022-12-05T18:31:52.037Z,90.85
2022-12-05T18:34:19.933Z,90.93
2022-12-05T18:36:47.743Z,90.71
2022-12-05T18:39:15.820Z,90.19
2022-12-05T18:41:43.552Z,90.12
2022-12-05T18:44:11.434Z,90.40
2022-12-05T18:46:39.326Z,90.36
2022-12-05T18:49:11.486Z,90.18
2022-12-05T18:51:39.754Z,90.35
2022-12-05T18:54:07.590Z,90.64
2022-12-05T18:56:38.360Z,90.95
2022-12-05T18:59:07.845Z,91.09
2022-12-05T19:01:37.686Z,91.12
2022-12-05T19:04:06.596Z,90.93
2022-12-05T19:06:36.706Z,90.87
2022-12-05T19:09:05.682Z,91.05
2022-12-05T19:11:36.783Z,90.80
2022-12-05T19:14:04.970Z,90.42
2022-12-05T19:16:33.760Z,90.46
2022-12-05T19:19:05.028Z,90.51
2022-12-05T19:21:34.293Z,90.35
2022-12-05T19:24:03.319Z,90.51
2022-12-05T19:26:31.389Z,90.76
2022-12-05T19:29:02.061Z,90.98
2022-12-05T19:31:30.735Z,91.17
2022-12-05T19:34:00.590Z,90.70
2022-12-05T19:36:29.748Z,90.64
2022-12-05T19:38:58.219Z,90.75
2022-12-05T19:41:26.878Z,90.83
2022-12-05T19:43:58.094Z,90.87
2022-12-05T19:46:29.787Z,91.07
2022-12-05T19:48:58.492Z,91.15
2022-12-05T19:51:26.297Z,91.57
2022-12-05T19:56:36.713Z,91.46
2022-12-05T19:59:05.272Z,91.07
2022-12-05T20:01:34.871Z,90.93
2022-12-05T20:04:06.947Z,90.98
2022-12-05T20:06:45.163Z,91.41
2022-12-05T20:09:13.835Z,91.42
2022-12-05T20:11:43.329Z,91.64
2022-12-05T20:14:12.933Z,91.15
2022-12-05T20:16:41.014Z,91.30
2022-12-05T20:19:09.185Z,91.65
2022-12-05T20:21:39.508Z,92.10
2022-12-05T20:24:07.754Z,92.35
2022-12-05T20:26:40.534Z,92.15
2022-12-05T20:29:08.694Z,91.70
2022-12-05T20:31:45.367Z,91.59
2022-12-05T20:34:14.848Z,91.61
2022-12-05T20:36:42.865Z,91.71
2022-12-05T20:39:13.566Z,91.73
2022-12-05T20:41:41.424Z,91.53
2022-12-05T20:44:11.539Z,91.91
2022-12-05T20:46:39.434Z,91.81
2022-12-05T20:49:07.410Z,91.28
2022-12-05T20:51:35.332Z,91.13
2022-12-05T20:54:05.418Z,91.14
2022-12-05T20:56:34.231Z,91.47
2022-12-05T20:59:03.772Z,91.12
2022-12-05T21:01:33.345Z,91.39
2022-12-05T21:04:01.811Z,91.34
2022-12-05T21:06:31.021Z,91.16
2022-12-05T21:08:59.725Z,91.45
2022-12-05T21:11:28.263Z,91.47
2022-12-05T21:13:56.749Z,91.77
2022-12-05T21:16:24.846Z,91.57
2022-12-05T21:18:52.920Z,91.38
2022-12-05T21:21:21.809Z,91.49
2022-12-05T21:23:57.579Z,91.97
2022-12-05T21:26:26.585Z,91.82
2022-12-05T21:28:54.638Z,91.59
2022-12-05T21:31:24.221Z,91.70
2022-12-05T21:33:53.762Z,91.48
2022-12-05T21:36:22.172Z,91.72
2022-12-05T21:38:55.626Z,91.77
2022-12-05T21:41:26.725Z,91.67
2022-12-05T21:43:55.794Z,91.38
2022-12-05T21:46:24.796Z,91.58
2022-12-05T21:48:52.690Z,91.79
2022-12-05T21:51:21.419Z,91.73
2022-12-05T21:53:49.164Z,91.05
2022-12-05T21:56:17.938Z,91.17
2022-12-05T21:58:46.293Z,91.14
2022-12-05T22:01:18.955Z,91.24
2022-12-05T22:03:47.217Z,91.40
2022-12-05T22:06:15.486Z,91.42
2022-12-05T22:08:43.727Z,91.34
2022-12-05T22:11:15.879Z,91.39
2022-12-05T22:13:44.471Z,91.30
2022-12-05T22:16:13.076Z,91.27
2022-12-05T22:18:41.332Z,91.54
2022-12-05T22:21:11.482Z,91.80
2022-12-05T22:23:39.190Z,91.89
2022-12-05T22:26:08.389Z,91.89
2022-12-05T22:28:36.403Z,91.72
2022-12-05T22:31:05.709Z,91.75
2022-12-05T22:33:35.797Z,91.80
2022-12-05T22:36:05.349Z,91.83
2022-12-05T22:38:34.879Z,91.80
2022-12-05T22:41:04.302Z,91.58
2022-12-05T22:43:32.804Z,91.33
2022-12-05T22:46:06.663Z,91.23
2022-12-05T22:48:35.101Z,91.69
2022-12-05T22:51:03.559Z,91.97
2022-12-05T22:53:31.977Z,91.71
2022-12-05T22:56:18.614Z,91.43
2022-12-05T22:58:46.825Z,91.22
2022-12-05T23:01:19.049Z,91.05
2022-12-05T23:03:47.679Z,91.35
2022-12-05T23:06:16.795Z,91.49
2022-12-05T23:08:45.433Z,91.51
2022-12-05T23:11:13.140Z,91.81
2022-12-05T23:13:40.839Z,92.02
2022-12-05T23:16:12.361Z,92.08
2022-12-05T23:18:49.631Z,92.04
2022-12-05T23:21:27.918Z,91.92
2022-12-05T23:23:56.938Z,92.04
2022-12-05T23:26:26.164Z,91.75
2022-12-05T23:28:54.302Z,91.62
2022-12-05T23:31:22.283Z,91.53
2022-12-05T23:33:51.676Z,91.53
2022-12-05T23:36:20.659Z,91.44
2022-12-05T23:38:48.839Z,91.30
2022-12-05T23:41:21.515Z,91.40
2022-12-05T23:43:50.310Z,91.36
2022-12-05T23:46:19.654Z,91.57
2022-12-05T23:48:47.567Z,91.67
2022-12-05T23:51:18.150Z,92.13
2022-12-05T23:53:46.990Z,92.73
2022-12-05T23:56:16.150Z,92.81
2022-12-05T23:58:44.701Z,92.98
